createdAt,value
2018-04-15T00:00:42.500Z,67.40
2018-04-15T00:03:11.393Z,69.03
2018-04-15T00:05:39.705Z,63.67
2018-04-15T00:08:07.248Z,68.73
2018-04-15T00:10:34.900Z,65.70
2018-04-15T00:13:02.861Z,69.73
2018-04-15T00:15:31.415Z,65.57
2018-04-15T00:17:58.966Z,69.63
2018-04-15T00:20:26.479Z,64.83
2018-04-15T00:22:54.035Z,74.70
2018-04-15T00:25:23.039Z,72.43
2018-04-15T00:27:50.590Z,65.67
2018-04-15T00:30:18.115Z,73.90
2018-04-15T00:32:45.666Z,68.00
2018-04-15T00:35:13.195Z,73.23
2018-04-15T00:37:41.172Z,70.00
2018-04-15T00:40:08.708Z,78.80
2018-04-15T00:42:36.225Z,69.47
2018-04-15T00:45:03.847Z,67.43
2018-04-15T00:47:31.376Z,69.67
2018-04-15T00:50:00.959Z,66.67
2018-04-15T00:52:28.470Z,67.33
2018-04-15T00:54:56.274Z,70.57
2018-04-15T00:57:25.821Z,66.67
2018-04-15T00:59:53.440Z,65.73
2018-04-15T01:02:20.992Z,66.07
2018-04-15T01:04:48.638Z,69.10
2018-04-15T01:07:16.283Z,68.03
2018-04-15T01:09:44.055Z,64.87
2018-04-15T01:12:11.580Z,67.37
2018-04-15T01:14:39.881Z,71.47
2018-04-15T01:17:07.546Z,66.13
2018-04-15T01:19:35.108Z,64.20
2018-04-15T01:22:02.701Z,69.37
2018-04-15T01:24:30.291Z,66.03
2018-04-15T01:26:59.304Z,65.57
2018-04-15T01:29:26.847Z,64.60
2018-04-15T01:31:55.136Z,68.10
2018-04-15T01:34:23.428Z,64.40
2018-04-15T01:36:50.956Z,70.80
2018-04-15T01:39:18.483Z,65.00
2018-04-15T01:41:46.008Z,61.40
2018-04-15T01:44:14.343Z,65.77
2018-04-15T01:46:41.884Z,67.07
2018-04-15T01:49:10.045Z,63.70
2018-04-15T01:51:37.573Z,61.97
2018-04-15T01:54:09.827Z,66.63
2018-04-15T01:56:38.133Z,65.07
2018-04-15T01:59:06.155Z,69.47
2018-04-15T02:01:33.683Z,63.97
2018-04-15T02:17:06.342Z,61.27
2018-04-15T02:19:33.872Z,62.80
2018-04-15T02:22:02.201Z,61.23
2018-04-15T02:24:29.723Z,60.40
2018-04-15T02:26:57.296Z,61.07
2018-04-15T02:29:24.832Z,62.03
2018-04-15T02:31:52.364Z,66.03
2018-04-15T02:34:19.889Z,63.50
2018-04-15T02:36:48.292Z,61.83
2018-04-15T02:39:15.845Z,66.43
2018-04-15T02:41:43.379Z,63.17
2018-04-15T02:44:10.912Z,62.40
2018-04-15T02:46:38.432Z,64.70
2018-04-15T02:49:05.978Z,61.93
2018-04-15T02:51:33.633Z,67.83
2018-04-15T02:54:01.246Z,64.03
2018-04-15T02:56:30.222Z,68.73
2018-04-15T02:58:57.737Z,66.53
2018-04-15T03:01:25.273Z,68.17
2018-04-15T03:03:54.184Z,66.17
2018-04-15T03:06:26.129Z,62.90
2018-04-15T03:08:53.970Z,68.90
2018-04-15T03:11:22.262Z,67.13
2018-04-15T03:13:50.544Z,65.23
2018-04-15T03:16:18.118Z,60.90
2018-04-15T03:18:45.657Z,64.77
2018-04-15T03:21:13.967Z,66.67
2018-04-15T03:23:41.518Z,64.63
2018-04-15T03:26:09.041Z,69.83
2018-04-15T03:28:37.353Z,66.67
2018-04-15T03:31:04.914Z,65.07
2018-04-15T03:33:32.477Z,68.83
2018-04-15T03:36:00.023Z,66.40
2018-04-15T03:38:27.567Z,66.13
2018-04-15T03:40:55.871Z,63.23
2018-04-15T03:43:23.393Z,65.50
2018-04-15T03:45:51.801Z,66.37
2018-04-15T03:48:19.336Z,68.23
2018-04-15T03:50:51.616Z,64.50
2018-04-15T03:53:19.896Z,64.13
2018-04-15T03:55:48.206Z,63.03
2018-04-15T03:58:15.726Z,62.20
2018-04-15T04:00:44.025Z,63.90
2018-04-15T04:03:11.551Z,69.83
2018-04-15T04:05:39.903Z,64.23
2018-04-15T04:08:07.520Z,67.97
2018-04-15T04:10:35.098Z,69.27
2018-04-15T04:13:03.495Z,69.23
2018-04-15T04:15:32.935Z,73.83
2018-04-15T04:18:13.390Z,73.60
2018-04-15T04:20:53.216Z,70.20
2018-04-15T04:23:32.691Z,64.30
2018-04-15T04:26:04.823Z,68.67
2018-04-15T04:28:32.349Z,64.53
2018-04-15T04:30:59.875Z,66.07
2018-04-15T04:33:28.229Z,70.50
2018-04-15T04:35:55.795Z,68.30
2018-04-15T04:38:23.339Z,73.60
2018-04-15T04:40:50.865Z,67.20
2018-04-15T04:43:18.396Z,73.60
2018-04-15T04:45:46.713Z,68.27
2018-04-15T04:48:18.129Z,67.73
2018-04-15T04:50:46.437Z,62.00
2018-04-15T04:53:14.008Z,71.30
2018-04-15T04:55:41.568Z,65.13
2018-04-15T04:58:09.105Z,65.33
2018-04-15T05:00:36.766Z,62.40
2018-04-15T05:03:04.308Z,61.60
2018-04-15T05:05:32.616Z,62.33
2018-04-15T05:08:00.192Z,64.20
2018-04-15T05:10:27.746Z,64.43
2018-04-15T05:12:55.291Z,64.00
2018-04-15T05:15:22.804Z,67.33
2018-04-15T05:17:50.327Z,59.70
2018-04-15T05:20:17.866Z,65.23
2018-04-15T05:22:45.409Z,66.67
2018-04-15T05:25:13.696Z,63.30
2018-04-15T05:27:41.976Z,64.43
2018-04-15T05:30:09.505Z,66.30
2018-04-15T05:32:37.802Z,69.47
2018-04-15T05:35:06.126Z,70.40
2018-04-15T05:37:33.758Z,71.83
2018-04-15T05:40:01.261Z,73.50
2018-04-15T05:42:29.620Z,70.23
2018-04-15T05:44:57.224Z,70.23
2018-04-15T05:47:25.520Z,74.57
2018-04-15T05:49:53.052Z,77.13
2018-04-15T05:52:20.587Z,76.40
2018-04-15T05:54:48.998Z,75.27
2018-04-15T05:57:17.298Z,73.53
2018-04-15T05:59:44.837Z,72.37
2018-04-15T06:02:13.160Z,76.93
2018-04-15T06:04:40.691Z,73.33
2018-04-15T06:07:08.251Z,63.57
2018-04-15T06:09:35.792Z,73.07
2018-04-15T06:12:04.077Z,71.43
2018-04-15T06:14:32.375Z,71.63
2018-04-15T06:16:59.907Z,69.47
2018-04-15T06:19:28.217Z,68.07
2018-04-15T06:21:55.753Z,69.67
2018-04-15T06:24:24.163Z,69.37
2018-04-15T06:26:52.262Z,65.97
2018-04-15T06:29:19.800Z,69.17
2018-04-15T06:31:47.341Z,69.63
2018-04-15T06:36:49.590Z,69.97
2018-04-15T06:39:17.073Z,71.67
2018-04-15T06:41:45.365Z,71.57
2018-04-15T06:44:12.879Z,75.10
2018-04-15T06:46:40.571Z,71.13
2018-04-15T06:49:09.530Z,68.97
2018-04-15T06:51:37.058Z,73.40
2018-04-15T06:54:04.576Z,71.03
2018-04-15T06:56:32.896Z,72.30
2018-04-15T06:59:00.490Z,68.77
2018-04-15T07:01:28.899Z,72.20
2018-04-15T07:03:57.205Z,71.17
2018-04-15T07:06:24.727Z,70.40
2018-04-15T07:08:53.043Z,71.00
2018-04-15T07:11:20.572Z,72.43
2018-04-15T07:13:48.876Z,72.63
2018-04-15T07:16:16.437Z,70.17
2018-04-15T07:18:44.262Z,76.73
2018-04-15T07:21:12.594Z,70.50
2018-04-15T07:23:40.115Z,72.30
2018-04-15T07:26:08.439Z,70.10
2018-04-15T07:28:36.608Z,70.47
2018-04-15T07:31:04.240Z,75.60
2018-04-15T07:33:31.801Z,70.73
2018-04-15T07:35:59.392Z,72.13
2018-04-15T07:38:26.946Z,64.40
2018-04-15T07:40:55.032Z,72.10
2018-04-15T07:43:22.553Z,70.57
2018-04-15T07:45:50.085Z,68.93
2018-04-15T07:48:17.684Z,70.20
2018-04-15T07:50:46.365Z,76.80
2018-04-15T07:53:13.900Z,72.63
2018-04-15T07:55:42.215Z,75.97
2018-04-15T07:58:09.760Z,77.37
2018-04-15T08:00:37.285Z,68.03
2018-04-15T08:03:04.826Z,74.83
2018-04-15T08:05:32.439Z,72.77
2018-04-15T08:08:00.006Z,71.37
2018-04-15T08:10:27.759Z,74.03
2018-04-15T08:12:56.068Z,70.50
2018-04-15T08:15:23.732Z,65.87
2018-04-15T08:17:51.268Z,67.50
2018-04-15T08:20:18.996Z,77.60
2018-04-15T08:22:47.283Z,69.63
2018-04-15T08:25:15.617Z,70.20
2018-04-15T08:27:43.119Z,71.00
2018-04-15T08:30:11.980Z,64.47
2018-04-15T08:32:39.511Z,67.03
2018-04-15T08:35:07.035Z,73.43
2018-04-15T08:37:35.340Z,74.77
2018-04-15T08:40:02.874Z,70.87
2018-04-15T08:42:31.166Z,72.20
2018-04-15T08:44:58.698Z,73.33
2018-04-15T08:47:26.996Z,71.83
2018-04-15T08:49:54.918Z,70.80
2018-04-15T08:52:22.592Z,71.33
2018-04-15T08:54:50.127Z,70.97
2018-04-15T08:57:17.777Z,69.53
2018-04-15T08:59:45.992Z,68.93
2018-04-15T09:02:13.521Z,72.07
2018-04-15T09:04:41.068Z,73.87
2018-04-15T09:07:09.186Z,67.40
2018-04-15T09:09:36.740Z,70.27
2018-04-15T09:12:04.305Z,70.90
2018-04-15T09:14:31.901Z,72.53
2018-04-15T09:16:59.444Z,71.77
2018-04-15T09:19:27.765Z,67.20
2018-04-15T09:21:55.309Z,59.60
2018-04-15T09:24:22.844Z,62.03
2018-04-15T09:26:51.145Z,61.57
2018-04-15T09:29:18.678Z,62.50
2018-04-15T09:31:47.000Z,63.63
2018-04-15T09:34:15.492Z,60.53
2018-04-15T09:36:43.150Z,62.70
2018-04-15T09:39:10.698Z,63.37
2018-04-15T09:41:38.376Z,55.30
2018-04-15T09:44:05.909Z,55.03
2018-04-15T09:46:34.335Z,52.70
2018-04-15T09:49:02.009Z,52.00
2018-04-15T09:51:29.616Z,56.17
2018-04-15T09:53:57.213Z,55.33
2018-04-15T09:56:24.830Z,51.35
2018-04-15T09:58:52.379Z,51.95
2018-04-15T10:01:19.918Z,50.95
2018-04-15T10:03:48.235Z,46.35
2018-04-15T10:06:15.771Z,52.07
2018-04-15T10:08:44.080Z,50.35
2018-04-15T10:11:12.379Z,51.05
2018-04-15T10:13:39.905Z,51.35
2018-04-15T10:16:07.512Z,45.33
2018-04-15T10:18:35.062Z,43.78
2018-04-15T10:21:03.153Z,44.25
2018-04-15T10:23:30.723Z,47.65
2018-04-15T10:25:59.008Z,42.92
2018-04-15T10:28:27.380Z,38.38
2018-04-15T10:30:55.740Z,38.55
2018-04-15T10:33:23.285Z,36.95
2018-04-15T10:35:50.853Z,36.28
2018-04-15T10:38:18.964Z,35.50
2018-04-15T10:40:47.323Z,38.05
2018-04-15T10:43:14.887Z,34.37
2018-04-15T10:45:43.256Z,36.33
2018-04-15T10:48:10.817Z,40.47
2018-04-15T10:50:38.338Z,36.25
2018-04-15T10:53:05.897Z,35.00
2018-04-15T10:55:33.888Z,34.85
2018-04-15T10:58:01.441Z,41.97
2018-04-15T11:00:28.995Z,40.28
2018-04-15T11:02:56.549Z,34.40
2018-04-15T11:05:24.096Z,34.67
2018-04-15T11:07:51.671Z,40.15
2018-04-15T11:10:19.947Z,31.80
2018-04-15T11:12:48.049Z,32.63
2018-04-15T11:15:15.613Z,36.45
2018-04-15T11:17:43.143Z,29.98
2018-04-15T11:20:11.246Z,27.75
2018-04-15T11:22:38.772Z,34.03
2018-04-15T11:25:06.333Z,28.80
2018-04-15T11:27:33.851Z,25.05
2018-04-15T11:30:02.174Z,27.83
2018-04-15T11:32:29.751Z,30.42
2018-04-15T11:34:57.259Z,30.90
2018-04-15T11:37:24.826Z,27.87
2018-04-15T11:39:52.371Z,28.05
2018-04-15T11:42:20.694Z,33.28
2018-04-15T11:44:48.218Z,35.00
2018-04-15T11:47:15.780Z,33.33
2018-04-15T11:49:43.997Z,33.30
2018-04-15T11:52:11.580Z,31.83
2018-04-15T11:54:39.135Z,28.80
2018-04-15T11:57:06.689Z,34.65
2018-04-15T11:59:34.527Z,33.78
2018-04-15T12:02:02.065Z,32.90
2018-04-15T12:04:29.605Z,37.40
2018-04-15T12:06:57.935Z,44.95
2018-04-15T12:09:25.478Z,53.17
2018-04-15T12:11:53.428Z,51.88
2018-04-15T12:14:20.999Z,54.55
2018-04-15T12:16:48.537Z,50.47
2018-04-15T12:19:16.847Z,46.05
2018-04-15T12:21:44.395Z,40.20
2018-04-15T12:24:11.921Z,35.42
2018-04-15T12:26:40.267Z,35.15
2018-04-15T12:29:07.819Z,32.55
2018-04-15T12:31:35.360Z,30.08
2018-04-15T12:34:02.886Z,27.70
2018-04-15T12:36:31.187Z,26.00
2018-04-15T12:38:59.353Z,23.55
2018-04-15T12:41:26.875Z,20.25
2018-04-15T12:43:54.425Z,22.15
2018-04-15T12:46:21.964Z,20.75
2018-04-15T12:48:49.518Z,20.62
2018-04-15T12:51:17.050Z,23.17
2018-04-15T12:53:44.585Z,20.37
2018-04-15T12:56:12.892Z,18.55
2018-04-15T12:58:40.446Z,17.92
2018-04-15T13:01:07.986Z,19.40
2018-04-15T13:03:36.280Z,19.55
2018-04-15T13:19:03.864Z,15.52
2018-04-15T13:21:32.157Z,16.12
2018-04-15T13:23:59.691Z,16.90
2018-04-15T13:26:27.253Z,16.87
2018-04-15T13:28:54.808Z,18.02
2018-04-15T13:31:22.369Z,17.90
2018-04-15T13:33:50.839Z,14.87
2018-04-15T13:36:18.420Z,15.85
2018-04-15T13:38:45.946Z,16.70
2018-04-15T13:41:14.235Z,16.17
2018-04-15T13:43:41.769Z,15.70
2018-04-15T13:46:10.059Z,16.25
2018-04-15T13:48:38.383Z,16.17
2018-04-15T13:51:05.923Z,16.87
2018-04-15T13:53:33.460Z,17.00
2018-04-15T13:56:01.014Z,15.48
2018-04-15T13:58:29.383Z,15.15
2018-04-15T14:00:57.752Z,16.40
2018-04-15T14:03:25.305Z,13.48
2018-04-15T14:05:53.399Z,15.30
2018-04-15T14:08:21.679Z,14.48
2018-04-15T14:10:49.973Z,14.32
2018-04-15T14:13:17.511Z,14.40
2018-04-15T14:15:45.828Z,12.32
2018-04-15T14:18:14.027Z,12.63
2018-04-15T14:20:41.563Z,12.35
2018-04-15T14:23:10.028Z,12.90
2018-04-15T14:25:38.521Z,13.50
2018-04-15T14:28:06.203Z,13.13
2018-04-15T14:30:33.748Z,12.23
2018-04-15T14:33:01.353Z,11.23
2018-04-15T14:35:28.929Z,14.35
2018-04-15T14:37:57.228Z,12.98
2018-04-15T14:40:24.808Z,12.77
2018-04-15T14:42:52.366Z,13.38
2018-04-15T14:45:19.939Z,13.05
2018-04-15T14:47:47.473Z,12.63
2018-04-15T14:50:15.031Z,13.45
2018-04-15T14:52:42.550Z,12.32
2018-04-15T14:55:10.085Z,12.20
2018-04-15T14:57:37.631Z,12.27
2018-04-15T15:00:51.067Z,12.90
2018-04-15T15:03:18.606Z,12.75
2018-04-15T15:05:46.144Z,12.43
2018-04-15T15:08:14.485Z,11.63
2018-04-15T15:10:42.024Z,10.85
2018-04-15T15:13:09.544Z,10.98
2018-04-15T15:15:37.853Z,12.02
2018-04-15T15:18:05.376Z,12.10
2018-04-15T15:20:33.710Z,11.98
2018-04-15T15:23:01.249Z,13.40
2018-04-15T15:25:29.539Z,16.42
2018-04-15T15:28:00.972Z,14.13
2018-04-15T15:30:28.551Z,13.43
2018-04-15T15:32:56.367Z,12.90
2018-04-15T15:35:24.659Z,13.02
2018-04-15T15:37:52.223Z,12.82
2018-04-15T15:40:19.768Z,12.20
2018-04-15T15:42:48.072Z,14.93
2018-04-15T15:45:15.607Z,11.80
2018-04-15T15:47:43.911Z,13.50
2018-04-15T15:50:11.477Z,15.50
2018-04-15T15:52:39.622Z,15.15
2018-04-15T15:55:07.934Z,13.43
2018-04-15T15:57:35.512Z,14.35
2018-04-15T16:00:03.056Z,19.65
2018-04-15T16:02:30.597Z,12.82
2018-04-15T16:04:58.143Z,13.10
2018-04-15T16:07:26.465Z,15.18
2018-04-15T16:09:54.660Z,15.02
2018-04-15T16:12:22.192Z,14.05
2018-04-15T16:14:49.719Z,25.83
2018-04-15T16:17:17.249Z,22.08
2018-04-15T16:19:44.799Z,15.77
2018-04-15T16:22:12.377Z,17.95
2018-04-15T16:24:40.684Z,19.48
2018-04-15T16:27:08.267Z,16.60
2018-04-15T16:29:40.000Z,16.87
2018-04-15T16:32:07.529Z,17.67
2018-04-15T16:34:35.060Z,18.42
2018-04-15T16:37:02.606Z,19.30
2018-04-15T16:39:30.224Z,22.30
2018-04-15T16:41:58.518Z,21.35
2018-04-15T16:44:27.598Z,19.45
2018-04-15T16:46:55.912Z,18.73
2018-04-15T16:49:23.554Z,20.62
2018-04-15T16:51:51.776Z,17.17
2018-04-15T16:54:19.382Z,16.77
2018-04-15T16:56:46.963Z,17.37
2018-04-15T16:59:14.505Z,19.52
2018-04-15T17:01:42.018Z,17.73
2018-04-15T17:04:10.159Z,20.23
2018-04-15T17:06:37.695Z,20.70
2018-04-15T17:09:05.220Z,18.87
2018-04-15T17:11:32.798Z,21.58
2018-04-15T17:14:01.801Z,19.90
2018-04-15T17:16:30.128Z,17.12
2018-04-15T17:18:58.666Z,17.98
2018-04-15T17:21:27.229Z,18.30
2018-04-15T17:23:55.557Z,18.73
2018-04-15T17:26:23.959Z,20.33
2018-04-15T17:28:51.598Z,18.45
2018-04-15T17:31:19.159Z,19.10
2018-04-15T17:33:46.709Z,22.20
2018-04-15T17:36:14.322Z,24.50
2018-04-15T17:38:42.062Z,17.75
2018-04-15T17:41:09.602Z,20.35
2018-04-15T17:43:37.242Z,19.42
2018-04-15T17:46:04.829Z,21.95
2018-04-15T17:48:32.435Z,20.35
2018-04-15T17:50:59.989Z,21.80
2018-04-15T17:53:27.559Z,21.85
2018-04-15T17:55:55.866Z,20.50
2018-04-15T17:58:27.545Z,20.77
2018-04-15T18:00:55.100Z,20.10
2018-04-15T18:03:22.624Z,23.33
2018-04-15T18:05:50.945Z,23.95
2018-04-15T18:08:18.541Z,24.55
2018-04-15T18:10:46.114Z,25.48
2018-04-15T18:13:14.417Z,20.85
2018-04-15T18:15:42.672Z,21.30
2018-04-15T18:18:10.980Z,19.95
2018-04-15T18:20:38.527Z,22.55
2018-04-15T18:23:06.055Z,19.48
2018-04-15T18:25:33.585Z,20.45
2018-04-15T18:28:02.425Z,28.12
2018-04-15T18:30:30.096Z,25.05
2018-04-15T18:32:58.400Z,23.48
2018-04-15T18:35:26.845Z,21.42
2018-04-15T18:37:54.449Z,24.17
2018-04-15T18:40:22.127Z,24.48
2018-04-15T18:42:49.684Z,24.23
2018-04-15T18:45:17.331Z,24.60
2018-04-15T18:47:44.857Z,25.20
2018-04-15T18:50:13.223Z,24.80
2018-04-15T18:52:40.722Z,22.83
2018-04-15T18:55:08.597Z,25.00
2018-04-15T19:09:09.013Z,31.85
2018-04-15T19:11:36.561Z,26.23
2018-04-15T19:14:04.101Z,27.63
2018-04-15T19:16:32.189Z,28.70
2018-04-15T19:18:59.711Z,25.37
2018-04-15T19:21:28.518Z,27.63
2018-04-15T19:23:56.104Z,25.75
2018-04-15T19:26:23.662Z,27.27
2018-04-15T19:28:51.183Z,27.83
2018-04-15T19:31:19.522Z,28.87
2018-04-15T19:33:47.643Z,26.30
2018-04-15T19:36:15.491Z,28.42
2018-04-15T19:38:43.796Z,26.52
2018-04-15T19:41:11.371Z,25.83
2018-04-15T19:43:39.706Z,24.65
2018-04-15T19:46:07.993Z,28.43
2018-04-15T19:48:36.310Z,24.80
2018-04-15T19:51:03.867Z,24.35
2018-04-15T19:53:31.412Z,25.33
2018-04-15T19:55:58.953Z,31.67
2018-04-15T19:58:27.294Z,27.17
2018-04-15T20:00:54.853Z,25.43
2018-04-15T20:03:23.338Z,26.23
2018-04-15T20:05:50.936Z,25.02
2018-04-15T20:08:19.236Z,31.80
2018-04-15T20:10:46.781Z,24.90
2018-04-15T20:13:14.359Z,26.90
2018-04-15T20:15:41.895Z,29.93
2018-04-15T20:18:10.243Z,26.07
2018-04-15T20:20:37.801Z,31.83
2018-04-15T20:23:05.341Z,31.60
2018-04-15T20:25:32.981Z,26.07
2018-04-15T20:28:00.519Z,26.87
2018-04-15T20:30:28.057Z,26.80
2018-04-15T20:32:57.234Z,32.57
2018-04-15T20:35:24.876Z,28.53
2018-04-15T20:37:52.418Z,26.93
2018-04-15T20:40:19.979Z,29.73
2018-04-15T20:42:47.533Z,26.50
2018-04-15T20:45:15.072Z,26.30
2018-04-15T20:47:43.484Z,25.83
2018-04-15T20:50:11.021Z,27.77
2018-04-15T20:52:38.557Z,25.30
2018-04-15T20:55:10.895Z,25.37
2018-04-15T20:57:39.217Z,28.27
2018-04-15T21:00:07.541Z,32.27
2018-04-15T21:02:36.106Z,27.93
2018-04-15T21:05:03.648Z,27.60
2018-04-15T21:07:31.180Z,27.50
2018-04-15T21:09:58.699Z,26.53
2018-04-15T21:12:26.279Z,26.67
2018-04-15T21:14:54.619Z,29.03
2018-04-15T21:17:22.180Z,46.10
2018-04-15T21:19:49.699Z,35.90
2018-04-15T21:22:18.036Z,34.93
2018-04-15T21:24:45.582Z,39.00
2018-04-15T21:27:13.187Z,37.30
2018-04-15T21:29:41.470Z,34.07
2018-04-15T21:32:09.006Z,34.83
2018-04-15T21:34:36.552Z,33.40
2018-04-15T21:37:04.074Z,33.63
2018-04-15T21:39:32.407Z,33.53
2018-04-15T21:41:59.935Z,39.57
2018-04-15T21:44:27.478Z,34.33
2018-04-15T21:46:55.055Z,34.67
2018-04-15T21:49:22.596Z,31.27
2018-04-15T21:51:50.135Z,29.33
2018-04-15T21:54:18.897Z,32.90
2018-04-15T21:56:46.417Z,30.40
2018-04-15T21:59:13.946Z,32.67
2018-04-15T22:01:42.863Z,29.20
2018-04-15T22:04:10.388Z,30.70
2018-04-15T22:06:37.912Z,28.77
2018-04-15T22:09:06.259Z,31.50
2018-04-15T22:11:45.575Z,30.30
2018-04-15T22:14:14.312Z,31.07
2018-04-15T22:16:42.637Z,31.83
2018-04-15T22:19:10.952Z,31.40
2018-04-15T22:21:38.480Z,28.93
2018-04-15T22:24:06.791Z,28.33
2018-04-15T22:26:34.523Z,30.07
2018-04-15T22:29:02.805Z,31.70
2018-04-15T22:31:31.115Z,31.73
2018-04-15T22:33:58.706Z,32.40
2018-04-15T22:36:26.223Z,33.97
2018-04-15T22:38:53.874Z,30.57
2018-04-15T22:41:21.388Z,32.10
2018-04-15T22:43:48.950Z,38.00
2018-04-15T22:46:16.476Z,31.97
2018-04-15T22:48:45.810Z,34.33
2018-04-15T22:51:14.570Z,33.53
2018-04-15T22:53:42.132Z,34.13
2018-04-15T22:56:09.874Z,32.13
2018-04-15T22:58:43.077Z,32.93
2018-04-15T23:01:10.603Z,30.67
2018-04-15T23:03:38.896Z,32.57
2018-04-15T23:06:06.428Z,32.23
2018-04-15T23:08:34.741Z,36.30
2018-04-15T23:11:05.938Z,35.40
2018-04-15T23:13:34.407Z,36.87
2018-04-15T23:16:02.522Z,34.53
2018-04-15T23:18:30.866Z,36.70
2018-04-15T23:20:58.424Z,33.43
2018-04-15T23:23:26.032Z,35.07
2018-04-15T23:25:53.681Z,38.10
2018-04-15T23:28:21.995Z,37.77
2018-04-15T23:30:49.737Z,37.13
2018-04-15T23:33:17.391Z,39.23
2018-04-15T23:35:45.005Z,36.43
2018-04-15T23:38:12.613Z,37.10
2018-04-15T23:40:40.177Z,42.13
2018-04-15T23:43:07.752Z,37.10
2018-04-15T23:45:35.356Z,36.77
2018-04-15T23:48:02.893Z,35.33
2018-04-15T23:50:30.415Z,40.07
2018-04-15T23:52:57.937Z,43.73
2018-04-15T23:55:25.689Z,42.83
2018-04-15T23:57:53.208Z,43.57
